sensor_id;sensor_type;location;lat;lon;timestamp;P1;durP1;ratioP1;P2;durP2;ratioP2
9860;SDS011;4969;52.304;4.968;2023-05-07T00:00:15;58.17;;;46.47;;
9860;SDS011;4969;52.304;4.968;2023-05-07T00:02:43;59.50;;;47.13;;
9860;SDS011;4969;52.304;4.968;2023-05-07T00:05:10;56.55;;;47.20;;
9860;SDS011;4969;52.304;4.968;2023-05-07T00:07:37;68.50;;;50.05;;
9860;SDS011;4969;52.304;4.968;2023-05-07T00:10:04;64.47;;;49.50;;
9860;SDS011;4969;52.304;4.968;2023-05-07T00:12:32;66.75;;;51.72;;
9860;SDS011;4969;52.304;4.968;2023-05-07T00:14:59;60.97;;;50.30;;
9860;SDS011;4969;52.304;4.968;2023-05-07T00:17:27;62.10;;;49.90;;
9860;SDS011;4969;52.304;4.968;2023-05-07T00:19:53;64.93;;;50.75;;
9860;SDS011;4969;52.304;4.968;2023-05-07T00:22:20;69.75;;;50.65;;
9860;SDS011;4969;52.304;4.968;2023-05-07T00:24:46;68.32;;;49.88;;
9860;SDS011;4969;52.304;4.968;2023-05-07T00:27:13;65.67;;;50.23;;
9860;SDS011;4969;52.304;4.968;2023-05-07T00:29:40;65.35;;;49.28;;
9860;SDS011;4969;52.304;4.968;2023-05-07T00:32:06;60.60;;;48.42;;
9860;SDS011;4969;52.304;4.968;2023-05-07T00:34:35;65.40;;;50.30;;
9860;SDS011;4969;52.304;4.968;2023-05-07T00:37:01;62.53;;;49.23;;
9860;SDS011;4969;52.304;4.968;2023-05-07T00:39:28;67.03;;;48.77;;
9860;SDS011;4969;52.304;4.968;2023-05-07T00:41:54;60.53;;;48.90;;
9860;SDS011;4969;52.304;4.968;2023-05-07T00:44:22;62.83;;;47.57;;
9860;SDS011;4969;52.304;4.968;2023-05-07T00:46:48;64.23;;;50.17;;
9860;SDS011;4969;52.304;4.968;2023-05-07T00:49:15;67.23;;;49.00;;
9860;SDS011;4969;52.304;4.968;2023-05-07T00:51:43;70.30;;;50.13;;
9860;SDS011;4969;52.304;4.968;2023-05-07T00:54:10;63.57;;;48.67;;
9860;SDS011;4969;52.304;4.968;2023-05-07T00:56:37;62.03;;;48.70;;
9860;SDS011;4969;52.304;4.968;2023-05-07T00:59:04;64.83;;;49.50;;
9860;SDS011;4969;52.304;4.968;2023-05-07T01:01:31;63.47;;;49.20;;
9860;SDS011;4969;52.304;4.968;2023-05-07T01:03:58;62.40;;;48.57;;
9860;SDS011;4969;52.304;4.968;2023-05-07T01:06:24;64.07;;;48.10;;
9860;SDS011;4969;52.304;4.968;2023-05-07T01:08:54;62.03;;;46.93;;
9860;SDS011;4969;52.304;4.968;2023-05-07T01:11:21;56.87;;;46.07;;
9860;SDS011;4969;52.304;4.968;2023-05-07T01:13:49;60.47;;;46.97;;
9860;SDS011;4969;52.304;4.968;2023-05-07T01:16:16;58.77;;;45.63;;
9860;SDS011;4969;52.304;4.968;2023-05-07T01:18:43;57.40;;;45.00;;
9860;SDS011;4969;52.304;4.968;2023-05-07T01:21:13;54.67;;;44.20;;
9860;SDS011;4969;52.304;4.968;2023-05-07T01:23:43;51.87;;;42.80;;
9860;SDS011;4969;52.304;4.968;2023-05-07T01:26:11;52.60;;;42.67;;
9860;SDS011;4969;52.304;4.968;2023-05-07T01:28:37;50.97;;;43.00;;
9860;SDS011;4969;52.304;4.968;2023-05-07T01:31:04;50.20;;;41.97;;
9860;SDS011;4969;52.304;4.968;2023-05-07T01:33:32;54.63;;;41.77;;
9860;SDS011;4969;52.304;4.968;2023-05-07T01:36:01;44.43;;;39.10;;
9860;SDS011;4969;52.304;4.968;2023-05-07T01:38:31;44.93;;;39.60;;
9860;SDS011;4969;52.304;4.968;2023-05-07T01:40:59;46.53;;;39.20;;
9860;SDS011;4969;52.304;4.968;2023-05-07T01:43:26;43.92;;;38.58;;
9860;SDS011;4969;52.304;4.968;2023-05-07T01:45:53;43.80;;;38.43;;
9860;SDS011;4969;52.304;4.968;2023-05-07T01:48:20;40.63;;;36.27;;
9860;SDS011;4969;52.304;4.968;2023-05-07T01:50:47;41.58;;;36.42;;
9860;SDS011;4969;52.304;4.968;2023-05-07T01:53:14;41.10;;;36.70;;
9860;SDS011;4969;52.304;4.968;2023-05-07T01:55:41;41.97;;;36.70;;
9860;SDS011;4969;52.304;4.968;2023-05-07T01:58:09;38.23;;;34.30;;
9860;SDS011;4969;52.304;4.968;2023-05-07T02:00:35;38.50;;;34.77;;
9860;SDS011;4969;52.304;4.968;2023-05-07T02:03:02;38.47;;;34.33;;
9860;SDS011;4969;52.304;4.968;2023-05-07T02:05:29;38.10;;;34.13;;
9860;SDS011;4969;52.304;4.968;2023-05-07T02:07:56;38.23;;;34.20;;
9860;SDS011;4969;52.304;4.968;2023-05-07T02:10:22;35.27;;;31.60;;
9860;SDS011;4969;52.304;4.968;2023-05-07T02:12:49;36.33;;;32.13;;
9860;SDS011;4969;52.304;4.968;2023-05-07T02:15:17;34.83;;;31.10;;
9860;SDS011;4969;52.304;4.968;2023-05-07T02:17:57;34.53;;;30.83;;
9860;SDS011;4969;52.304;4.968;2023-05-07T02:20:25;32.73;;;29.53;;
9860;SDS011;4969;52.304;4.968;2023-05-07T02:22:52;32.53;;;29.33;;
9860;SDS011;4969;52.304;4.968;2023-05-07T02:25:18;32.30;;;29.23;;
9860;SDS011;4969;52.304;4.968;2023-05-07T02:27:45;33.10;;;27.93;;
9860;SDS011;4969;52.304;4.968;2023-05-07T02:30:11;30.83;;;27.70;;
9860;SDS011;4969;52.304;4.968;2023-05-07T02:32:40;29.47;;;26.37;;
9860;SDS011;4969;52.304;4.968;2023-05-07T02:35:06;31.13;;;27.93;;
9860;SDS011;4969;52.304;4.968;2023-05-07T02:37:33;27.97;;;25.27;;
9860;SDS011;4969;52.304;4.968;2023-05-07T02:40:00;29.20;;;26.23;;
9860;SDS011;4969;52.304;4.968;2023-05-07T02:42:28;29.17;;;26.37;;
9860;SDS011;4969;52.304;4.968;2023-05-07T02:44:55;27.13;;;24.47;;
9860;SDS011;4969;52.304;4.968;2023-05-07T02:47:21;27.83;;;24.90;;
9860;SDS011;4969;52.304;4.968;2023-05-07T02:49:49;25.00;;;22.67;;
9860;SDS011;4969;52.304;4.968;2023-05-07T02:52:15;25.17;;;22.67;;
9860;SDS011;4969;52.304;4.968;2023-05-07T02:54:42;24.40;;;22.00;;
9860;SDS011;4969;52.304;4.968;2023-05-07T02:57:09;24.00;;;21.63;;
9860;SDS011;4969;52.304;4.968;2023-05-07T02:59:35;23.27;;;20.87;;
9860;SDS011;4969;52.304;4.968;2023-05-07T03:02:02;22.60;;;20.60;;
9860;SDS011;4969;52.304;4.968;2023-05-07T03:04:28;23.03;;;20.87;;
9860;SDS011;4969;52.304;4.968;2023-05-07T03:06:56;21.20;;;19.20;;
9860;SDS011;4969;52.304;4.968;2023-05-07T03:09:23;20.30;;;18.40;;
9860;SDS011;4969;52.304;4.968;2023-05-07T03:11:49;19.03;;;17.40;;
9860;SDS011;4969;52.304;4.968;2023-05-07T03:14:16;20.02;;;18.00;;
9860;SDS011;4969;52.304;4.968;2023-05-07T03:16:42;21.17;;;18.07;;
9860;SDS011;4969;52.304;4.968;2023-05-07T03:19:09;18.93;;;17.27;;
9860;SDS011;4969;52.304;4.968;2023-05-07T03:21:35;18.73;;;16.93;;
9860;SDS011;4969;52.304;4.968;2023-05-07T03:24:04;18.80;;;17.02;;
9860;SDS011;4969;52.304;4.968;2023-05-07T03:26:31;18.30;;;16.50;;
9860;SDS011;4969;52.304;4.968;2023-05-07T03:28:57;17.43;;;15.77;;
9860;SDS011;4969;52.304;4.968;2023-05-07T03:31:24;18.83;;;16.97;;
9860;SDS011;4969;52.304;4.968;2023-05-07T03:33:51;19.13;;;17.33;;
9860;SDS011;4969;52.304;4.968;2023-05-07T03:36:18;18.38;;;16.67;;
9860;SDS011;4969;52.304;4.968;2023-05-07T03:38:45;17.60;;;15.80;;
9860;SDS011;4969;52.304;4.968;2023-05-07T03:41:13;18.30;;;16.63;;
9860;SDS011;4969;52.304;4.968;2023-05-07T03:43:39;17.47;;;15.97;;
9860;SDS011;4969;52.304;4.968;2023-05-07T03:46:06;16.70;;;15.30;;
9860;SDS011;4969;52.304;4.968;2023-05-07T03:48:33;18.27;;;16.37;;
9860;SDS011;4969;52.304;4.968;2023-05-07T03:50:59;16.80;;;15.23;;
9860;SDS011;4969;52.304;4.968;2023-05-07T03:53:26;17.40;;;15.63;;
9860;SDS011;4969;52.304;4.968;2023-05-07T03:55:53;18.13;;;16.30;;
9860;SDS011;4969;52.304;4.968;2023-05-07T03:58:21;18.67;;;16.45;;
9860;SDS011;4969;52.304;4.968;2023-05-07T04:00:47;18.63;;;16.83;;
9860;SDS011;4969;52.304;4.968;2023-05-07T04:03:14;18.93;;;17.20;;
9860;SDS011;4969;52.304;4.968;2023-05-07T04:05:41;18.60;;;17.05;;
9860;SDS011;4969;52.304;4.968;2023-05-07T04:08:07;18.07;;;16.30;;
9860;SDS011;4969;52.304;4.968;2023-05-07T04:10:34;18.87;;;17.07;;
9860;SDS011;4969;52.304;4.968;2023-05-07T04:13:01;18.48;;;16.65;;
9860;SDS011;4969;52.304;4.968;2023-05-07T04:15:28;18.65;;;16.92;;
9860;SDS011;4969;52.304;4.968;2023-05-07T04:17:55;18.87;;;17.00;;
9860;SDS011;4969;52.304;4.968;2023-05-07T04:20:22;20.67;;;18.73;;
9860;SDS011;4969;52.304;4.968;2023-05-07T04:22:49;19.15;;;17.33;;
9860;SDS011;4969;52.304;4.968;2023-05-07T04:25:15;19.73;;;17.60;;
9860;SDS011;4969;52.304;4.968;2023-05-07T04:27:42;20.00;;;18.00;;
9860;SDS011;4969;52.304;4.968;2023-05-07T04:30:09;19.60;;;17.95;;
9860;SDS011;4969;52.304;4.968;2023-05-07T04:32:37;20.23;;;18.23;;
9860;SDS011;4969;52.304;4.968;2023-05-07T04:35:04;21.20;;;18.43;;
9860;SDS011;4969;52.304;4.968;2023-05-07T04:37:32;20.57;;;18.67;;
9860;SDS011;4969;52.304;4.968;2023-05-07T04:39:58;21.73;;;19.53;;
9860;SDS011;4969;52.304;4.968;2023-05-07T04:42:25;21.97;;;19.97;;
9860;SDS011;4969;52.304;4.968;2023-05-07T04:44:52;22.27;;;20.13;;
9860;SDS011;4969;52.304;4.968;2023-05-07T04:47:19;23.00;;;20.67;;
9860;SDS011;4969;52.304;4.968;2023-05-07T04:49:47;22.90;;;20.83;;
9860;SDS011;4969;52.304;4.968;2023-05-07T04:52:14;22.80;;;20.53;;
9860;SDS011;4969;52.304;4.968;2023-05-07T04:54:41;23.03;;;20.83;;
9860;SDS011;4969;52.304;4.968;2023-05-07T04:57:08;25.40;;;22.80;;
9860;SDS011;4969;52.304;4.968;2023-05-07T04:59:34;25.93;;;23.43;;
9860;SDS011;4969;52.304;4.968;2023-05-07T05:02:01;25.23;;;22.93;;
9860;SDS011;4969;52.304;4.968;2023-05-07T05:04:29;27.03;;;24.43;;
9860;SDS011;4969;52.304;4.968;2023-05-07T05:06:57;26.90;;;24.30;;
9860;SDS011;4969;52.304;4.968;2023-05-07T05:09:24;28.25;;;25.45;;
9860;SDS011;4969;52.304;4.968;2023-05-07T05:11:50;28.60;;;25.97;;
9860;SDS011;4969;52.304;4.968;2023-05-07T05:14:17;29.20;;;26.53;;
9860;SDS011;4969;52.304;4.968;2023-05-07T05:16:43;30.13;;;27.27;;
9860;SDS011;4969;52.304;4.968;2023-05-07T05:19:10;30.67;;;27.58;;
9860;SDS011;4969;52.304;4.968;2023-05-07T05:21:36;32.47;;;29.47;;
9860;SDS011;4969;52.304;4.968;2023-05-07T05:24:05;32.30;;;29.20;;
9860;SDS011;4969;52.304;4.968;2023-05-07T05:26:32;31.27;;;28.27;;
9860;SDS011;4969;52.304;4.968;2023-05-07T05:28:58;31.63;;;28.70;;
9860;SDS011;4969;52.304;4.968;2023-05-07T05:31:25;32.67;;;29.57;;
9860;SDS011;4969;52.304;4.968;2023-05-07T05:33:51;32.25;;;29.40;;
9860;SDS011;4969;52.304;4.968;2023-05-07T05:36:18;32.53;;;29.42;;
9860;SDS011;4969;52.304;4.968;2023-05-07T05:38:45;31.45;;;28.48;;
9860;SDS011;4969;52.304;4.968;2023-05-07T05:41:12;29.88;;;26.95;;
9860;SDS011;4969;52.304;4.968;2023-05-07T05:43:39;29.57;;;26.77;;
9860;SDS011;4969;52.304;4.968;2023-05-07T05:46:05;29.38;;;26.58;;
9860;SDS011;4969;52.304;4.968;2023-05-07T05:48:33;29.27;;;26.65;;
9860;SDS011;4969;52.304;4.968;2023-05-07T05:51:02;27.73;;;25.20;;
9860;SDS011;4969;52.304;4.968;2023-05-07T05:53:28;28.13;;;25.52;;
9860;SDS011;4969;52.304;4.968;2023-05-07T05:55:55;27.95;;;25.42;;
9860;SDS011;4969;52.304;4.968;2023-05-07T05:58:23;26.95;;;24.42;;
9860;SDS011;4969;52.304;4.968;2023-05-07T06:00:49;25.38;;;23.02;;
9860;SDS011;4969;52.304;4.968;2023-05-07T06:03:18;25.10;;;22.77;;
9860;SDS011;4969;52.304;4.968;2023-05-07T06:05:44;25.37;;;22.87;;
9860;SDS011;4969;52.304;4.968;2023-05-07T06:08:11;24.63;;;22.35;;
9860;SDS011;4969;52.304;4.968;2023-05-07T06:10:38;24.17;;;21.77;;
9860;SDS011;4969;52.304;4.968;2023-05-07T06:13:04;24.40;;;22.17;;
9860;SDS011;4969;52.304;4.968;2023-05-07T06:15:32;24.23;;;22.05;;
9860;SDS011;4969;52.304;4.968;2023-05-07T06:17:59;22.95;;;20.92;;
9860;SDS011;4969;52.304;4.968;2023-05-07T06:20:25;23.05;;;20.98;;
9860;SDS011;4969;52.304;4.968;2023-05-07T06:22:52;23.27;;;21.08;;
9860;SDS011;4969;52.304;4.968;2023-05-07T06:25:18;21.58;;;19.35;;
9860;SDS011;4969;52.304;4.968;2023-05-07T06:27:45;21.95;;;19.77;;
9860;SDS011;4969;52.304;4.968;2023-05-07T06:30:12;21.20;;;19.40;;
9860;SDS011;4969;52.304;4.968;2023-05-07T06:32:40;19.98;;;17.98;;
9860;SDS011;4969;52.304;4.968;2023-05-07T06:35:07;20.58;;;18.77;;
9860;SDS011;4969;52.304;4.968;2023-05-07T06:37:34;21.05;;;19.15;;
9860;SDS011;4969;52.304;4.968;2023-05-07T06:40:03;22.08;;;20.08;;
9860;SDS011;4969;52.304;4.968;2023-05-07T06:42:31;22.35;;;20.45;;
9860;SDS011;4969;52.304;4.968;2023-05-07T06:44:57;21.42;;;19.38;;
9860;SDS011;4969;52.304;4.968;2023-05-07T06:47:24;21.77;;;19.80;;
9860;SDS011;4969;52.304;4.968;2023-05-07T06:49:52;21.98;;;19.95;;
9860;SDS011;4969;52.304;4.968;2023-05-07T06:52:18;21.10;;;18.98;;
9860;SDS011;4969;52.304;4.968;2023-05-07T06:54:45;21.75;;;19.65;;
9860;SDS011;4969;52.304;4.968;2023-05-07T06:57:11;21.17;;;19.17;;
9860;SDS011;4969;52.304;4.968;2023-05-07T06:59:38;21.15;;;19.10;;
9860;SDS011;4969;52.304;4.968;2023-05-07T07:02:04;21.10;;;19.00;;
9860;SDS011;4969;52.304;4.968;2023-05-07T07:04:31;21.60;;;19.58;;
9860;SDS011;4969;52.304;4.968;2023-05-07T07:06:59;21.05;;;19.00;;
9860;SDS011;4969;52.304;4.968;2023-05-07T07:09:26;21.73;;;19.83;;
9860;SDS011;4969;52.304;4.968;2023-05-07T07:11:52;22.33;;;20.25;;
9860;SDS011;4969;52.304;4.968;2023-05-07T07:14:19;23.52;;;21.35;;
9860;SDS011;4969;52.304;4.968;2023-05-07T07:16:46;23.73;;;21.52;;
9860;SDS011;4969;52.304;4.968;2023-05-07T07:19:12;23.85;;;21.67;;
9860;SDS011;4969;52.304;4.968;2023-05-07T07:21:40;23.52;;;21.25;;
9860;SDS011;4969;52.304;4.968;2023-05-07T07:24:08;22.73;;;20.73;;
9860;SDS011;4969;52.304;4.968;2023-05-07T07:26:34;23.23;;;21.20;;
9860;SDS011;4969;52.304;4.968;2023-05-07T07:29:01;24.90;;;22.60;;
9860;SDS011;4969;52.304;4.968;2023-05-07T07:31:27;25.23;;;22.92;;
9860;SDS011;4969;52.304;4.968;2023-05-07T07:33:55;22.33;;;20.27;;
9860;SDS011;4969;52.304;4.968;2023-05-07T07:36:21;24.02;;;21.90;;
9860;SDS011;4969;52.304;4.968;2023-05-07T07:38:48;26.50;;;24.27;;
9860;SDS011;4969;52.304;4.968;2023-05-07T07:41:16;24.55;;;22.52;;
9860;SDS011;4969;52.304;4.968;2023-05-07T07:43:42;22.52;;;20.60;;
9860;SDS011;4969;52.304;4.968;2023-05-07T07:46:09;23.40;;;20.95;;
9860;SDS011;4969;52.304;4.968;2023-05-07T07:48:35;24.70;;;22.30;;
9860;SDS011;4969;52.304;4.968;2023-05-07T07:51:02;24.50;;;22.25;;
9860;SDS011;4969;52.304;4.968;2023-05-07T07:53:29;24.65;;;22.35;;
9860;SDS011;4969;52.304;4.968;2023-05-07T07:55:56;25.83;;;23.42;;
9860;SDS011;4969;52.304;4.968;2023-05-07T07:58:23;25.00;;;22.80;;
9860;SDS011;4969;52.304;4.968;2023-05-07T08:00:50;25.65;;;23.35;;
9860;SDS011;4969;52.304;4.968;2023-05-07T08:03:17;24.27;;;22.17;;
9860;SDS011;4969;52.304;4.968;2023-05-07T08:05:44;25.17;;;22.88;;
9860;SDS011;4969;52.304;4.968;2023-05-07T08:08:11;24.15;;;21.95;;
9860;SDS011;4969;52.304;4.968;2023-05-07T08:10:37;22.85;;;20.85;;
9860;SDS011;4969;52.304;4.968;2023-05-07T08:13:04;22.20;;;20.20;;
9860;SDS011;4969;52.304;4.968;2023-05-07T08:15:32;22.70;;;20.77;;
9860;SDS011;4969;52.304;4.968;2023-05-07T08:17:59;23.65;;;21.52;;
9860;SDS011;4969;52.304;4.968;2023-05-07T08:20:27;22.92;;;20.83;;
9860;SDS011;4969;52.304;4.968;2023-05-07T08:22:54;20.45;;;18.83;;
9860;SDS011;4969;52.304;4.968;2023-05-07T08:25:21;21.33;;;19.45;;
9860;SDS011;4969;52.304;4.968;2023-05-07T08:27:47;19.90;;;18.10;;
9860;SDS011;4969;52.304;4.968;2023-05-07T08:30:14;19.92;;;18.15;;
9860;SDS011;4969;52.304;4.968;2023-05-07T08:32:42;19.80;;;18.15;;
9860;SDS011;4969;52.304;4.968;2023-05-07T08:35:09;18.17;;;16.45;;
9860;SDS011;4969;52.304;4.968;2023-05-07T08:37:36;18.95;;;17.23;;
9860;SDS011;4969;52.304;4.968;2023-05-07T08:40:02;17.10;;;15.63;;
9860;SDS011;4969;52.304;4.968;2023-05-07T08:42:29;18.02;;;16.35;;
9860;SDS011;4969;52.304;4.968;2023-05-07T08:44:58;16.70;;;15.10;;
9860;SDS011;4969;52.304;4.968;2023-05-07T08:47:28;16.65;;;14.70;;
9860;SDS011;4969;52.304;4.968;2023-05-07T08:49:59;14.95;;;13.65;;
9860;SDS011;4969;52.304;4.968;2023-05-07T08:52:27;14.73;;;13.32;;
9860;SDS011;4969;52.304;4.968;2023-05-07T08:54:53;14.23;;;13.02;;
9860;SDS011;4969;52.304;4.968;2023-05-07T08:57:20;14.82;;;13.43;;
9860;SDS011;4969;52.304;4.968;2023-05-07T08:59:48;15.05;;;13.73;;
9860;SDS011;4969;52.304;4.968;2023-05-07T09:02:15;16.40;;;14.93;;
9860;SDS011;4969;52.304;4.968;2023-05-07T09:04:43;16.60;;;15.20;;
9860;SDS011;4969;52.304;4.968;2023-05-07T09:07:11;16.50;;;15.20;;
9860;SDS011;4969;52.304;4.968;2023-05-07T09:09:37;15.75;;;14.45;;
9860;SDS011;4969;52.304;4.968;2023-05-07T09:12:04;15.88;;;14.57;;
9860;SDS011;4969;52.304;4.968;2023-05-07T09:14:31;15.77;;;14.35;;
9860;SDS011;4969;52.304;4.968;2023-05-07T09:16:57;15.85;;;14.45;;
9860;SDS011;4969;52.304;4.968;2023-05-07T09:19:24;14.77;;;13.52;;
9860;SDS011;4969;52.304;4.968;2023-05-07T09:21:57;14.32;;;13.02;;
9860;SDS011;4969;52.304;4.968;2023-05-07T09:24:25;15.48;;;14.10;;
9860;SDS011;4969;52.304;4.968;2023-05-07T09:26:53;15.15;;;13.80;;
9860;SDS011;4969;52.304;4.968;2023-05-07T09:29:20;14.77;;;13.55;;
9860;SDS011;4969;52.304;4.968;2023-05-07T09:31:47;14.60;;;13.23;;
9860;SDS011;4969;52.304;4.968;2023-05-07T09:34:13;15.20;;;13.88;;
9860;SDS011;4969;52.304;4.968;2023-05-07T09:36:40;15.63;;;14.32;;
9860;SDS011;4969;52.304;4.968;2023-05-07T09:39:07;15.82;;;14.57;;
9860;SDS011;4969;52.304;4.968;2023-05-07T09:41:36;15.38;;;14.10;;
9860;SDS011;4969;52.304;4.968;2023-05-07T09:44:09;14.93;;;13.68;;
9860;SDS011;4969;52.304;4.968;2023-05-07T09:46:36;14.20;;;12.90;;
9860;SDS011;4969;52.304;4.968;2023-05-07T09:49:04;14.45;;;13.15;;
9860;SDS011;4969;52.304;4.968;2023-05-07T09:51:37;14.43;;;13.13;;
9860;SDS011;4969;52.304;4.968;2023-05-07T09:54:07;14.80;;;13.60;;
9860;SDS011;4969;52.304;4.968;2023-05-07T09:56:35;14.10;;;12.13;;
9860;SDS011;4969;52.304;4.968;2023-05-07T09:59:02;14.35;;;13.15;;
9860;SDS011;4969;52.304;4.968;2023-05-07T10:01:30;13.95;;;12.57;;
9860;SDS011;4969;52.304;4.968;2023-05-07T10:03:57;13.70;;;12.55;;
9860;SDS011;4969;52.304;4.968;2023-05-07T10:06:25;13.90;;;12.68;;
9860;SDS011;4969;52.304;4.968;2023-05-07T10:08:51;13.27;;;12.07;;
9860;SDS011;4969;52.304;4.968;2023-05-07T10:11:19;13.18;;;11.90;;
9860;SDS011;4969;52.304;4.968;2023-05-07T10:13:47;13.60;;;12.30;;
9860;SDS011;4969;52.304;4.968;2023-05-07T10:16:14;12.20;;;11.00;;
9860;SDS011;4969;52.304;4.968;2023-05-07T10:18:41;11.15;;;10.27;;
9860;SDS011;4969;52.304;4.968;2023-05-07T10:21:11;10.98;;;10.02;;
9860;SDS011;4969;52.304;4.968;2023-05-07T10:23:41;12.27;;;11.15;;
9860;SDS011;4969;52.304;4.968;2023-05-07T10:26:10;13.05;;;12.05;;
9860;SDS011;4969;52.304;4.968;2023-05-07T10:28:40;11.65;;;10.73;;
9860;SDS011;4969;52.304;4.968;2023-05-07T10:31:18;11.13;;;10.07;;
9860;SDS011;4969;52.304;4.968;2023-05-07T10:33:57;12.10;;;11.07;;
9860;SDS011;4969;52.304;4.968;2023-05-07T10:36:26;12.30;;;11.20;;
9860;SDS011;4969;52.304;4.968;2023-05-07T10:38:53;10.48;;;9.63;;
9860;SDS011;4969;52.304;4.968;2023-05-07T10:41:20;10.95;;;9.95;;
9860;SDS011;4969;52.304;4.968;2023-05-07T10:43:47;10.13;;;9.35;;
9860;SDS011;4969;52.304;4.968;2023-05-07T10:46:16;10.43;;;9.18;;
9860;SDS011;4969;52.304;4.968;2023-05-07T10:51:37;9.10;;;8.20;;
9860;SDS011;4969;52.304;4.968;2023-05-07T10:54:23;8.23;;;7.43;;
9860;SDS011;4969;52.304;4.968;2023-05-07T10:56:52;8.95;;;8.25;;
9860;SDS011;4969;52.304;4.968;2023-05-07T10:59:31;8.80;;;8.00;;
9860;SDS011;4969;52.304;4.968;2023-05-07T11:02:07;8.75;;;8.15;;
9860;SDS011;4969;52.304;4.968;2023-05-07T11:04:35;6.97;;;6.28;;
9860;SDS011;4969;52.304;4.968;2023-05-07T11:07:14;6.82;;;6.18;;
9860;SDS011;4969;52.304;4.968;2023-05-07T11:09:57;6.57;;;5.93;;
9860;SDS011;4969;52.304;4.968;2023-05-07T11:15:37;7.53;;;4.85;;
9860;SDS011;4969;52.304;4.968;2023-05-07T11:18:14;6.60;;;4.20;;
9860;SDS011;4969;52.304;4.968;2023-05-07T11:20:52;4.85;;;3.30;;
9860;SDS011;4969;52.304;4.968;2023-05-07T11:26:47;6.13;;;4.30;;
9860;SDS011;4969;52.304;4.968;2023-05-07T11:29:15;6.85;;;4.82;;
9860;SDS011;4969;52.304;4.968;2023-05-07T11:31:43;7.15;;;6.45;;
9860;SDS011;4969;52.304;4.968;2023-05-07T11:34:12;8.60;;;6.40;;
9860;SDS011;4969;52.304;4.968;2023-05-07T11:36:41;6.57;;;5.90;;
9860;SDS011;4969;52.304;4.968;2023-05-07T11:39:22;5.85;;;4.68;;
9860;SDS011;4969;52.304;4.968;2023-05-07T11:41:50;5.57;;;5.03;;
9860;SDS011;4969;52.304;4.968;2023-05-07T11:44:16;6.15;;;3.95;;
9860;SDS011;4969;52.304;4.968;2023-05-07T11:46:43;6.63;;;4.10;;
9860;SDS011;4969;52.304;4.968;2023-05-07T11:49:11;7.63;;;4.82;;
9860;SDS011;4969;52.304;4.968;2023-05-07T11:51:38;5.90;;;4.28;;
9860;SDS011;4969;52.304;4.968;2023-05-07T11:54:05;8.85;;;5.53;;
9860;SDS011;4969;52.304;4.968;2023-05-07T11:56:33;5.97;;;5.38;;
9860;SDS011;4969;52.304;4.968;2023-05-07T11:59:00;6.07;;;5.13;;
9860;SDS011;4969;52.304;4.968;2023-05-07T12:01:27;6.00;;;5.40;;
9860;SDS011;4969;52.304;4.968;2023-05-07T12:03:54;5.93;;;4.53;;
9860;SDS011;4969;52.304;4.968;2023-05-07T12:06:22;6.95;;;4.82;;
9860;SDS011;4969;52.304;4.968;2023-05-07T12:08:48;7.70;;;4.43;;
9860;SDS011;4969;52.304;4.968;2023-05-07T12:11:15;5.25;;;3.17;;
9860;SDS011;4969;52.304;4.968;2023-05-07T12:13:47;5.05;;;3.40;;
9860;SDS011;4969;52.304;4.968;2023-05-07T12:16:14;5.68;;;3.72;;
9860;SDS011;4969;52.304;4.968;2023-05-07T12:18:40;4.65;;;3.17;;
9860;SDS011;4969;52.304;4.968;2023-05-07T12:21:07;5.88;;;3.70;;
9860;SDS011;4969;52.304;4.968;2023-05-07T12:23:36;6.22;;;3.85;;
9860;SDS011;4969;52.304;4.968;2023-05-07T12:26:03;6.20;;;3.95;;
9860;SDS011;4969;52.304;4.968;2023-05-07T12:28:30;8.05;;;3.17;;
9860;SDS011;4969;52.304;4.968;2023-05-07T12:31:02;5.85;;;3.00;;
9860;SDS011;4969;52.304;4.968;2023-05-07T12:33:28;5.18;;;3.50;;
9860;SDS011;4969;52.304;4.968;2023-05-07T12:35:56;4.53;;;3.30;;
9860;SDS011;4969;52.304;4.968;2023-05-07T12:38:23;7.57;;;2.78;;
9860;SDS011;4969;52.304;4.968;2023-05-07T12:40:53;4.70;;;2.65;;
9860;SDS011;4969;52.304;4.968;2023-05-07T12:43:23;6.68;;;2.53;;
9860;SDS011;4969;52.304;4.968;2023-05-07T12:45:51;5.05;;;3.30;;
9860;SDS011;4969;52.304;4.968;2023-05-07T12:48:20;6.47;;;3.42;;
9860;SDS011;4969;52.304;4.968;2023-05-07T12:50:48;5.18;;;2.75;;
9860;SDS011;4969;52.304;4.968;2023-05-07T12:53:15;5.80;;;2.97;;
9860;SDS011;4969;52.304;4.968;2023-05-07T12:55:42;5.65;;;2.60;;
9860;SDS011;4969;52.304;4.968;2023-05-07T12:58:15;6.28;;;2.80;;
9860;SDS011;4969;52.304;4.968;2023-05-07T13:00:43;4.18;;;2.30;;
9860;SDS011;4969;52.304;4.968;2023-05-07T13:03:10;4.60;;;2.28;;
9860;SDS011;4969;52.304;4.968;2023-05-07T13:05:37;4.95;;;2.60;;
9860;SDS011;4969;52.304;4.968;2023-05-07T13:08:04;8.90;;;3.28;;
9860;SDS011;4969;52.304;4.968;2023-05-07T13:10:31;5.35;;;2.97;;
9860;SDS011;4969;52.304;4.968;2023-05-07T13:12:59;6.00;;;3.08;;
9860;SDS011;4969;52.304;4.968;2023-05-07T13:15:27;6.88;;;3.63;;
9860;SDS011;4969;52.304;4.968;2023-05-07T13:17:53;5.95;;;3.00;;
9860;SDS011;4969;52.304;4.968;2023-05-07T13:20:20;6.65;;;3.00;;
9860;SDS011;4969;52.304;4.968;2023-05-07T13:22:47;4.38;;;3.08;;
9860;SDS011;4969;52.304;4.968;2023-05-07T13:25:13;4.68;;;2.67;;
9860;SDS011;4969;52.304;4.968;2023-05-07T13:27:40;6.45;;;2.70;;
9860;SDS011;4969;52.304;4.968;2023-05-07T13:30:07;5.85;;;2.58;;
9860;SDS011;4969;52.304;4.968;2023-05-07T13:32:35;5.88;;;2.83;;
9860;SDS011;4969;52.304;4.968;2023-05-07T13:35:01;4.82;;;2.90;;
9860;SDS011;4969;52.304;4.968;2023-05-07T13:37:28;4.30;;;2.40;;
9860;SDS011;4969;52.304;4.968;2023-05-07T13:39:55;5.22;;;2.20;;
9860;SDS011;4969;52.304;4.968;2023-05-07T13:42:21;5.35;;;2.20;;
9860;SDS011;4969;52.304;4.968;2023-05-07T13:44:48;5.47;;;2.60;;
9860;SDS011;4969;52.304;4.968;2023-05-07T13:47:14;5.20;;;2.08;;
9860;SDS011;4969;52.304;4.968;2023-05-07T13:49:42;19.23;;;4.00;;
9860;SDS011;4969;52.304;4.968;2023-05-07T13:52:09;15.00;;;3.28;;
9860;SDS011;4969;52.304;4.968;2023-05-07T13:54:36;6.82;;;3.00;;
9860;SDS011;4969;52.304;4.968;2023-05-07T13:57:02;5.63;;;2.45;;
9860;SDS011;4969;52.304;4.968;2023-05-07T13:59:29;8.15;;;6.25;;
9860;SDS011;4969;52.304;4.968;2023-05-07T14:01:55;6.93;;;6.22;;
9860;SDS011;4969;52.304;4.968;2023-05-07T14:04:22;7.60;;;6.60;;
9860;SDS011;4969;52.304;4.968;2023-05-07T14:06:50;6.28;;;5.70;;
9860;SDS011;4969;52.304;4.968;2023-05-07T14:09:16;9.48;;;5.28;;
9860;SDS011;4969;52.304;4.968;2023-05-07T14:11:43;7.38;;;4.88;;
9860;SDS011;4969;52.304;4.968;2023-05-07T14:14:11;7.15;;;5.30;;
9860;SDS011;4969;52.304;4.968;2023-05-07T14:16:37;6.03;;;4.65;;
9860;SDS011;4969;52.304;4.968;2023-05-07T14:19:04;8.15;;;6.60;;
9860;SDS011;4969;52.304;4.968;2023-05-07T14:21:30;9.10;;;8.13;;
9860;SDS011;4969;52.304;4.968;2023-05-07T14:23:58;10.43;;;9.30;;
9860;SDS011;4969;52.304;4.968;2023-05-07T14:26:25;10.60;;;9.55;;
9860;SDS011;4969;52.304;4.968;2023-05-07T14:28:52;12.25;;;11.05;;
9860;SDS011;4969;52.304;4.968;2023-05-07T14:31:20;16.35;;;11.45;;
9860;SDS011;4969;52.304;4.968;2023-05-07T14:33:47;19.83;;;14.63;;
9860;SDS011;4969;52.304;4.968;2023-05-07T14:36:14;17.58;;;13.52;;
9860;SDS011;4969;52.304;4.968;2023-05-07T14:38:41;12.52;;;11.05;;
9860;SDS011;4969;52.304;4.968;2023-05-07T14:41:09;17.00;;;12.38;;
9860;SDS011;4969;52.304;4.968;2023-05-07T14:43:35;18.02;;;12.68;;
9860;SDS011;4969;52.304;4.968;2023-05-07T14:46:02;15.32;;;12.70;;
9860;SDS011;4969;52.304;4.968;2023-05-07T14:48:28;14.38;;;11.15;;
9860;SDS011;4969;52.304;4.968;2023-05-07T14:50:55;15.48;;;9.43;;
9860;SDS011;4969;52.304;4.968;2023-05-07T14:53:22;14.15;;;10.27;;
9860;SDS011;4969;52.304;4.968;2023-05-07T14:55:49;12.90;;;11.02;;
9860;SDS011;4969;52.304;4.968;2023-05-07T14:58:17;10.88;;;9.75;;
9860;SDS011;4969;52.304;4.968;2023-05-07T15:00:43;11.25;;;9.52;;
9860;SDS011;4969;52.304;4.968;2023-05-07T15:03:10;12.02;;;9.35;;
9860;SDS011;4969;52.304;4.968;2023-05-07T15:05:38;14.57;;;9.80;;